Terminal Aerodrome Forecast
Issued by NWS Twin Cities, MN

Home | Current Version | Previous Version | Text Only | Print | Product List | Glossary On
Versions: 1 2 3 4 5 6 7 8 9 10 11 12 13 14 15
000
FTUS43 KMPX 251738
TAFSTC
TAF
KSTC 251738Z 2518/2618 15012G18KT P6SM BKN050
     FM260000 14007KT P6SM OVC050
     FM260800 17006KT P6SM VCSH BKN040=

USA.gov is the U.S. government's official web portal to all federal, state and local government web resources and services.